Time;durP1;ratioP1;P1;durP2;ratioP2;P2;SDS_P1;SDS_P2;PMS_P1;PMS_P2;Temp;Humidity;BMP_temperature;BMP_pressure;BME280_temperature;BME280_humidity;BME280_pressure;Samples;Min_cycle;Max_cycle;Signal;HPM_P1;HPM_P2
2022/04/10 00:01:49;;;;;;;14.20;3.45;;;21.00;60.70;;;;;;5007583;28;20060;-71
2022/04/10 00:04:16;;;;;;;17.13;3.55;;;21.00;60.70;;;;;;5007296;28;20026;-73
2022/04/10 00:06:42;;;;;;;12.15;3.53;;;20.90;60.80;;;;;;5005479;28;20021;-72
2022/04/10 00:09:10;;;;;;;10.88;2.53;;;21.00;60.70;;;;;;5004181;28;20026;-71
2022/04/10 00:11:36;;;;;;;7.25;2.17;;;20.90;60.70;;;;;;5005748;28;20355;-73
2022/04/10 00:14:02;;;;;;;11.77;3.47;;;20.90;60.70;;;;;;5006787;28;20110;-73
2022/04/10 00:16:29;;;;;;;8.18;2.15;;;20.90;60.90;;;;;;5005624;28;20962;-73
2022/04/10 00:19:01;;;;;;;11.73;2.53;;;20.90;60.90;;;;;;5006619;28;20043;-72
2022/04/10 00:21:28;;;;;;;8.32;2.65;;;20.90;61.00;;;;;;5005791;28;20025;-73
2022/04/10 00:23:54;;;;;;;8.45;1.90;;;20.90;61.00;;;;;;5005442;28;20080;-72
2022/04/10 00:26:21;;;;;;;8.10;2.00;;;20.90;61.30;;;;;;5008928;28;20029;-73
2022/04/10 00:28:48;;;;;;;9.48;2.10;;;20.80;61.20;;;;;;5004707;28;20362;-73
2022/04/10 00:31:14;;;;;;;8.15;2.20;;;20.80;61.30;;;;;;5005411;28;20065;-72
2022/04/10 00:33:42;;;;;;;7.63;2.10;;;20.80;61.40;;;;;;5005280;28;20034;-72
2022/04/10 00:36:09;;;;;;;4.50;2.53;;;20.80;61.40;;;;;;5007423;28;20028;-73
2022/04/10 00:38:35;;;;;;;8.90;2.72;;;20.80;61.50;;;;;;5004042;28;20021;-72
2022/04/10 00:41:02;;;;;;;11.18;2.80;;;20.80;61.50;;;;;;5006596;28;20083;-72
2022/04/10 00:43:32;;;;;;;9.48;2.42;;;20.80;61.50;;;;;;5007585;28;20030;-73
2022/04/10 00:46:00;;;;;;;9.18;2.17;;;20.70;61.60;;;;;;5005686;28;20076;-74
2022/04/10 00:48:27;;;;;;;5.20;1.63;;;20.70;61.50;;;;;;5003508;28;20377;-73
2022/04/10 00:53:42;;;;;;;7.22;1.77;;;20.70;61.50;;;;;;5006186;28;20056;-72
2022/04/10 00:56:09;;;;;;;7.00;1.80;;;20.70;61.50;;;;;;5005812;28;20030;-73
2022/04/10 00:58:36;;;;;;;7.78;2.10;;;20.70;61.50;;;;;;5003282;28;20022;-73
2022/04/10 01:01:02;;;;;;;6.40;2.03;;;20.70;61.60;;;;;;5002540;28;20022;-73
2022/04/10 01:03:29;;;;;;;5.85;1.75;;;20.70;61.60;;;;;;5004056;28;20022;-74
2022/04/10 01:05:56;;;;;;;12.30;3.28;;;20.70;61.80;;;;;;5005719;28;20101;-73
2022/04/10 01:08:22;;;;;;;15.52;2.53;;;20.70;61.90;;;;;;5004907;28;20039;-76
2022/04/10 01:10:49;;;;;;;6.95;2.50;;;20.70;62.20;;;;;;5005325;28;20068;-73
2022/04/10 01:13:15;;;;;;;5.00;1.75;;;20.70;62.30;;;;;;5003508;28;20109;-73
2022/04/10 01:15:42;;;;;;;9.70;2.45;;;20.70;62.40;;;;;;5019430;28;20022;-73
2022/04/10 01:18:11;;;;;;;24.00;2.35;;;20.70;62.40;;;;;;5007693;28;20017;-72
2022/04/10 01:20:40;;;;;;;16.77;3.50;;;20.60;62.50;;;;;;5004029;28;21129;-73
2022/04/10 01:23:07;;;;;;;8.88;2.15;;;20.60;62.50;;;;;;5005697;28;20435;-73
2022/04/10 01:25:34;;;;;;;10.23;1.92;;;20.60;62.50;;;;;;5000711;28;20034;-72
2022/04/10 01:28:01;;;;;;;5.88;1.67;;;20.60;62.60;;;;;;5006117;28;20088;-72
2022/04/10 01:30:28;;;;;;;23.27;3.15;;;20.60;62.60;;;;;;5004278;28;20033;-74
2022/04/10 01:32:55;;;;;;;11.00;3.42;;;20.60;62.70;;;;;;5006373;28;20520;-71
2022/04/10 01:35:24;;;;;;;19.80;2.60;;;20.60;63.00;;;;;;5004763;28;20034;-72
2022/04/10 01:37:52;;;;;;;6.85;2.00;;;20.60;62.90;;;;;;5005006;28;20124;-72
2022/04/10 01:40:19;;;;;;;11.63;3.15;;;20.60;62.80;;;;;;5004742;28;20052;-72
2022/04/10 01:42:45;;;;;;;7.32;2.78;;;20.60;62.80;;;;;;5000778;28;20022;-75
2022/04/10 01:45:12;;;;;;;12.23;3.15;;;20.60;62.70;;;;;;5021331;28;20050;-72
2022/04/10 01:47:38;;;;;;;14.55;2.60;;;20.50;62.80;;;;;;5005459;28;20117;-72
2022/04/10 01:50:05;;;;;;;12.88;3.10;;;20.50;62.80;;;;;;5001594;28;20171;-73
2022/04/10 01:52:31;;;;;;;9.75;2.42;;;20.50;62.90;;;;;;5006928;28;20034;-72
2022/04/10 01:54:58;;;;;;;10.07;3.47;;;20.50;62.90;;;;;;5005153;28;20061;-75
2022/04/10 01:57:24;;;;;;;9.93;2.45;;;20.50;62.80;;;;;;5005026;28;20578;-72
2022/04/10 01:59:51;;;;;;;9.35;2.83;;;20.50;62.80;;;;;;5000576;28;20025;-71
2022/04/10 02:02:17;;;;;;;10.27;2.08;;;20.40;62.80;;;;;;5005465;28;20018;-72
2022/04/10 02:04:44;;;;;;;20.75;2.70;;;20.40;62.80;;;;;;5005790;28;20026;-72
2022/04/10 02:07:10;;;;;;;47.15;5.47;;;20.40;62.70;;;;;;5003505;28;20381;-76
2022/04/10 02:09:37;;;;;;;19.13;3.45;;;20.40;63.50;;;;;;5003171;28;20034;-72
2022/04/10 02:12:04;;;;;;;13.75;2.78;;;20.40;63.30;;;;;;5004057;28;20637;-71
2022/04/10 02:14:30;;;;;;;7.05;2.03;;;20.40;63.10;;;;;;5005625;28;20057;-72
2022/04/10 02:16:57;;;;;;;8.73;2.47;;;20.40;63.00;;;;;;5002550;28;20103;-75
2022/04/10 02:19:23;;;;;;;9.82;2.67;;;20.40;63.00;;;;;;5007454;28;20018;-72
2022/04/10 02:21:49;;;;;;;9.30;1.92;;;20.40;62.90;;;;;;5009963;28;20040;-74
2022/04/10 02:24:16;;;;;;;9.13;3.13;;;20.40;62.80;;;;;;5012378;28;20523;-72
2022/04/10 02:26:42;;;;;;;8.77;1.95;;;20.30;62.80;;;;;;5011208;28;20030;-72
2022/04/10 02:29:09;;;;;;;8.60;1.63;;;20.30;62.80;;;;;;5009246;28;20101;-72
2022/04/10 02:31:35;;;;;;;7.18;1.90;;;20.30;62.80;;;;;;5009180;28;20029;-72
2022/04/10 02:34:02;;;;;;;9.18;2.50;;;20.30;62.80;;;;;;5011641;28;20026;-71
2022/04/10 02:36:28;;;;;;;4.50;2.05;;;20.30;62.80;;;;;;5011370;28;20477;-71
2022/04/10 02:38:55;;;;;;;15.13;2.10;;;20.30;62.70;;;;;;5011587;28;20031;-71
2022/04/10 02:41:21;;;;;;;8.25;1.95;;;20.30;63.10;;;;;;5012355;28;20032;-73
2022/04/10 02:43:48;;;;;;;20.88;3.30;;;20.30;62.90;;;;;;5010018;28;20080;-71
2022/04/10 02:46:14;;;;;;;18.17;3.17;;;20.30;63.10;;;;;;5011322;28;20642;-72
2022/04/10 02:48:41;;;;;;;15.48;2.83;;;20.30;63.10;;;;;;5011869;28;20028;-72
2022/04/10 02:51:07;;;;;;;8.45;2.00;;;20.30;62.90;;;;;;5010298;28;20150;-73
2022/04/10 02:53:34;;;;;;;4.40;1.55;;;20.30;62.80;;;;;;5009649;28;20038;-71
2022/04/10 02:56:00;;;;;;;8.40;1.70;;;20.30;62.60;;;;;;5009655;28;20045;-71
2022/04/10 02:58:27;;;;;;;10.80;2.13;;;20.30;62.50;;;;;;5009677;28;20049;-71
2022/04/10 03:00:53;;;;;;;8.88;2.15;;;20.30;62.40;;;;;;5011980;28;20026;-71
2022/04/10 03:03:20;;;;;;;7.03;2.80;;;20.30;62.30;;;;;;5011597;28;20045;-72
2022/04/10 03:05:49;;;;;;;5.15;2.25;;;20.20;62.30;;;;;;5010855;28;20061;-71
2022/04/10 03:08:17;;;;;;;13.75;2.78;;;20.20;62.30;;;;;;5009052;28;20029;-72
2022/04/10 03:10:44;;;;;;;20.48;2.90;;;20.20;62.40;;;;;;5012478;28;20484;-71
2022/04/10 03:13:11;;;;;;;11.27;3.03;;;20.20;62.50;;;;;;5007622;28;20488;-71
2022/04/10 03:15:37;;;;;;;12.10;2.88;;;20.20;62.60;;;;;;5011348;28;20413;-71
2022/04/10 03:18:04;;;;;;;6.07;2.55;;;20.20;62.50;;;;;;5010053;28;20124;-72
2022/04/10 03:20:30;;;;;;;8.98;1.98;;;20.20;62.50;;;;;;5010957;28;20080;-74
2022/04/10 03:22:57;;;;;;;7.40;3.08;;;20.20;62.40;;;;;;5009443;28;20026;-71
2022/04/10 03:25:23;;;;;;;9.35;2.72;;;20.20;62.20;;;;;;5005563;28;20033;-71
2022/04/10 03:27:50;;;;;;;6.05;1.90;;;20.20;62.20;;;;;;5012985;28;20063;-72
2022/04/10 03:30:16;;;;;;;10.65;2.28;;;20.20;62.10;;;;;;5005769;28;20061;-71
2022/04/10 03:32:43;;;;;;;6.70;2.22;;;20.20;62.00;;;;;;5008769;28;20037;-72
2022/04/10 03:35:10;;;;;;;8.45;2.45;;;20.10;61.90;;;;;;5006959;28;20048;-72
2022/04/10 03:37:36;;;;;;;7.75;1.95;;;20.10;61.80;;;;;;5009190;28;20018;-72
2022/04/10 03:40:04;;;;;;;9.48;3.78;;;20.10;61.80;;;;;;5006087;28;20037;-72
2022/04/10 03:42:40;;;;;;;12.02;2.45;;;20.10;61.70;;;;;;5006701;28;20062;-72
2022/04/10 03:45:08;;;;;;;7.22;3.20;;;20.10;61.60;;;;;;5007624;28;20479;-71
2022/04/10 03:47:35;;;;;;;7.10;1.85;;;20.10;61.60;;;;;;5006911;28;20034;-72
2022/04/10 03:50:02;;;;;;;11.05;2.80;;;20.00;61.50;;;;;;5003840;28;20022;-74
2022/04/10 03:52:29;;;;;;;5.13;2.22;;;20.00;61.50;;;;;;5006818;28;20042;-71
2022/04/10 03:54:55;;;;;;;4.22;2.50;;;20.00;61.50;;;;;;5008676;28;20013;-71
2022/04/10 03:57:22;;;;;;;5.00;2.72;;;20.00;61.50;;;;;;5005202;28;20125;-71
2022/04/10 03:59:48;;;;;;;8.65;3.08;;;19.90;61.50;;;;;;5005917;28;20040;-72
2022/04/10 04:02:18;;;;;;;9.15;3.55;;;19.90;61.50;;;;;;5006668;28;20065;-72
2022/04/10 04:04:44;;;;;;;23.77;4.10;;;19.90;61.50;;;;;;5004273;28;20075;-72
2022/04/10 04:07:11;;;;;;;20.45;4.68;;;19.90;61.70;;;;;;5006722;28;20029;-73
2022/04/10 04:09:37;;;;;;;21.95;3.67;;;19.90;61.70;;;;;;5003256;28;20127;-72
2022/04/10 04:12:04;;;;;;;17.38;6.47;;;19.90;61.80;;;;;;5005773;28;20037;-71
2022/04/10 04:14:30;;;;;;;12.95;6.25;;;19.90;61.90;;;;;;5006140;28;20029;-70
2022/04/10 04:16:57;;;;;;;11.43;5.57;;;19.80;61.80;;;;;;5004152;28;20025;-70
2022/04/10 04:19:24;;;;;;;11.30;3.38;;;19.80;61.90;;;;;;5005343;28;20053;-72
2022/04/10 04:21:50;;;;;;;8.68;3.35;;;19.80;62.00;;;;;;5006312;28;20026;-72
2022/04/10 04:24:16;;;;;;;12.23;2.85;;;19.90;62.10;;;;;;5005828;28;20479;-72
2022/04/10 04:26:43;;;;;;;7.82;2.67;;;19.80;62.00;;;;;;5007272;28;20098;-73
2022/04/10 04:29:09;;;;;;;7.93;2.53;;;19.80;62.20;;;;;;5008522;28;20026;-71
2022/04/10 04:31:36;;;;;;;8.75;2.65;;;19.80;62.20;;;;;;5006067;28;20109;-71
2022/04/10 04:34:03;;;;;;;5.57;2.42;;;19.80;62.20;;;;;;5005840;28;20030;-74
2022/04/10 04:36:31;;;;;;;8.48;2.22;;;19.80;62.20;;;;;;5009736;28;20136;-73
2022/04/10 04:38:57;;;;;;;9.50;2.70;;;19.80;62.10;;;;;;5005745;28;20028;-72
2022/04/10 04:41:24;;;;;;;14.00;3.17;;;19.80;62.10;;;;;;5007921;28;20022;-71
2022/04/10 04:43:50;;;;;;;25.20;2.97;;;19.80;62.10;;;;;;5005238;28;20022;-74
2022/04/10 04:46:17;;;;;;;12.70;2.22;;;19.80;62.00;;;;;;5009718;28;20014;-71
2022/04/10 04:48:43;;;;;;;7.43;2.47;;;19.80;62.10;;;;;;5008871;28;20022;-70
2022/04/10 04:51:15;;;;;;;14.00;9.32;;;19.80;62.80;;;;;;5007106;28;20025;-71
2022/04/10 04:53:41;;;;;;;15.70;7.38;;;19.80;63.10;;;;;;5010028;28;20411;-71
2022/04/10 04:56:08;;;;;;;14.48;4.50;;;19.80;63.00;;;;;;5007563;28;20045;-71
2022/04/10 04:58:34;;;;;;;7.95;2.97;;;19.80;62.60;;;;;;5003384;28;20022;-72
2022/04/10 05:01:01;;;;;;;12.02;2.97;;;19.80;62.50;;;;;;5002766;28;20481;-71
2022/04/10 05:03:27;;;;;;;5.10;2.65;;;19.80;62.60;;;;;;5005966;28;20489;-71
2022/04/10 05:05:54;;;;;;;6.82;3.00;;;19.80;62.80;;;;;;5004407;28;20026;-72
2022/04/10 05:08:20;;;;;;;14.88;3.05;;;19.80;62.80;;;;;;5005746;28;20022;-72
2022/04/10 05:10:47;;;;;;;21.35;3.50;;;19.80;63.00;;;;;;5006381;28;20093;-73
2022/04/10 05:13:14;;;;;;;11.27;2.90;;;19.80;62.80;;;;;;5005736;28;20026;-71
2022/04/10 05:15:40;;;;;;;18.83;3.10;;;19.80;62.80;;;;;;5005871;28;20017;-72
2022/04/10 05:18:07;;;;;;;13.63;2.17;;;19.80;63.00;;;;;;5004987;28;20032;-71
2022/04/10 05:20:33;;;;;;;16.45;3.97;;;19.80;63.40;;;;;;5006470;28;20089;-71
2022/04/10 05:23:00;;;;;;;7.57;3.25;;;19.80;63.20;;;;;;5007579;28;20017;-71
2022/04/10 05:25:26;;;;;;;9.02;2.58;;;19.80;63.40;;;;;;5007645;28;20030;-71
2022/04/10 05:27:55;;;;;;;5.05;2.47;;;19.80;63.50;;;;;;5006716;28;20006;-72
2022/04/10 05:30:22;;;;;;;10.38;2.10;;;19.80;63.40;;;;;;5005046;28;20096;-73
2022/04/10 05:32:48;;;;;;;3.58;2.00;;;19.80;63.50;;;;;;5007193;28;20033;-71
2022/04/10 05:35:16;;;;;;;7.28;2.65;;;19.80;63.40;;;;;;5007270;28;20105;-71
2022/04/10 05:37:42;;;;;;;6.55;1.95;;;19.80;63.50;;;;;;5008454;28;20064;-71
2022/04/10 05:40:10;;;;;;;7.88;2.47;;;19.80;63.50;;;;;;5001263;28;20030;-75
2022/04/10 05:42:43;;;;;;;6.13;2.00;;;19.80;63.50;;;;;;5004510;28;20108;-70
2022/04/10 05:45:11;;;;;;;7.25;2.80;;;19.80;63.60;;;;;;5005598;28;20033;-72
2022/04/10 05:47:39;;;;;;;12.38;2.72;;;19.80;63.60;;;;;;5006231;28;20080;-72
2022/04/10 05:50:10;;;;;;;5.47;2.28;;;19.80;63.70;;;;;;5005686;28;20021;-71
2022/04/10 05:52:43;;;;;;;7.43;2.75;;;19.80;63.70;;;;;;5003405;28;20080;-71
2022/04/10 05:55:12;;;;;;;15.57;5.88;;;19.80;63.80;;;;;;5004978;28;20029;-74
2022/04/10 05:57:39;;;;;;;43.80;18.55;;;19.80;63.80;;;;;;5004064;28;20045;-72
2022/04/10 06:00:09;;;;;;;21.27;11.32;;;19.80;64.00;;;;;;5005469;28;20026;-72
2022/04/10 06:02:36;;;;;;;13.68;8.50;;;19.80;64.10;;;;;;5002952;28;20030;-76
2022/04/10 06:05:03;;;;;;;12.13;5.55;;;19.80;64.10;;;;;;5008610;28;20028;-78
2022/04/10 06:07:30;;;;;;;17.90;4.55;;;19.80;64.20;;;;;;5006623;28;20049;-72
2022/04/10 06:09:56;;;;;;;10.88;3.92;;;19.90;64.30;;;;;;5005934;28;20030;-72
2022/04/10 06:12:23;;;;;;;8.55;3.35;;;19.90;64.30;;;;;;5006530;28;20037;-75
2022/04/10 06:14:49;;;;;;;9.20;2.75;;;19.90;64.30;;;;;;5005405;28;20014;-72
2022/04/10 06:17:16;;;;;;;9.30;2.70;;;19.90;64.30;;;;;;5006559;28;20026;-72
2022/04/10 06:19:42;;;;;;;7.80;2.55;;;19.90;64.20;;;;;;5006030;28;20026;-71
2022/04/10 06:22:09;;;;;;;6.38;2.35;;;19.90;64.80;;;;;;5005180;28;20411;-70
2022/04/10 06:24:39;;;;;;;8.27;2.10;;;19.90;64.20;;;;;;5004222;28;20033;-71
2022/04/10 06:27:05;;;;;;;8.15;2.50;;;20.00;64.10;;;;;;5006377;28;20025;-72
2022/04/10 06:29:32;;;;;;;4.90;2.30;;;20.00;64.30;;;;;;5007349;28;20399;-70
2022/04/10 06:31:58;;;;;;;10.80;3.95;;;20.00;64.50;;;;;;5007034;28;20021;-71
2022/04/10 06:34:25;;;;;;;10.95;3.33;;;20.00;64.50;;;;;;5003454;28;20497;-71
2022/04/10 06:36:51;;;;;;;8.32;2.20;;;20.10;64.60;;;;;;5007027;28;20022;-74
2022/04/10 06:39:18;;;;;;;8.25;1.95;;;20.10;64.20;;;;;;5006474;28;20053;-72
2022/04/10 06:41:44;;;;;;;12.10;2.85;;;20.10;63.90;;;;;;5007725;28;20022;-74
2022/04/10 06:44:11;;;;;;;8.27;2.33;;;20.10;63.70;;;;;;5006470;28;20018;-71
2022/04/10 06:46:38;;;;;;;14.38;2.95;;;20.10;63.30;;;;;;5004542;28;20049;-75
2022/04/10 06:49:04;;;;;;;10.35;2.03;;;20.10;63.20;;;;;;5006296;28;20072;-72
2022/04/10 06:51:31;;;;;;;28.38;22.58;;;20.20;63.30;;;;;;5006977;28;20026;-71
2022/04/10 06:53:57;;;;;;;26.20;17.88;;;20.20;62.80;;;;;;5005151;28;20037;-71
2022/04/10 06:56:24;;;;;;;17.48;13.98;;;20.20;62.50;;;;;;5006937;28;20050;-73
2022/04/10 06:58:50;;;;;;;13.63;9.30;;;20.20;62.40;;;;;;5003420;28;20432;-71
2022/04/10 07:01:17;;;;;;;10.25;5.53;;;20.30;62.40;;;;;;5004305;28;20022;-75
2022/04/10 07:03:43;;;;;;;8.90;4.38;;;20.30;62.20;;;;;;5003939;28;20105;-71
2022/04/10 07:06:10;;;;;;;15.55;7.55;;;20.40;62.10;;;;;;5004385;28;20021;-74
2022/04/10 07:08:37;;;;;;;18.95;14.38;;;20.40;62.20;;;;;;5006527;28;20568;-73
2022/04/10 07:11:04;;;;;;;21.27;10.48;;;20.40;62.50;;;;;;5009208;28;20432;-72
2022/04/10 07:13:30;;;;;;;12.65;8.95;;;20.40;62.50;;;;;;5008505;28;20038;-72
2022/04/10 07:15:57;;;;;;;10.18;7.22;;;20.40;62.30;;;;;;5010547;28;20030;-70
2022/04/10 07:18:23;;;;;;;12.57;6.38;;;20.50;62.30;;;;;;5006835;28;20939;-73
2022/04/10 07:20:50;;;;;;;7.97;5.10;;;20.50;62.30;;;;;;5009768;28;20511;-72
2022/04/10 07:26:03;;;;;;;30.63;12.88;;;20.60;62.80;;;;;;5007049;28;20025;-74
2022/04/10 07:28:30;;;;;;;17.30;9.07;;;20.60;62.90;;;;;;5008615;28;20382;-73
2022/04/10 07:30:58;;;;;;;14.80;6.13;;;20.60;63.00;;;;;;5008874;28;20025;-74
2022/04/10 07:33:24;;;;;;;13.32;6.03;;;20.70;63.10;;;;;;5006531;28;20481;-73
2022/04/10 07:35:52;;;;;;;7.32;3.97;;;20.70;63.30;;;;;;5007806;28;20084;-73
2022/04/10 07:38:18;;;;;;;8.13;4.18;;;20.70;63.00;;;;;;5006710;28;20113;-73
2022/04/10 07:40:45;;;;;;;27.65;5.18;;;20.70;63.10;;;;;;5005845;28;20014;-73
2022/04/10 07:43:12;;;;;;;11.50;4.25;;;20.80;62.80;;;;;;5010493;28;20097;-73
2022/04/10 07:48:23;;;;;;;9.98;2.90;;;20.80;62.60;;;;;;5009980;28;20029;-72
2022/04/10 07:50:50;;;;;;;7.15;2.75;;;20.90;62.00;;;;;;5009442;28;20033;-72
2022/04/10 07:53:17;;;;;;;9.20;3.00;;;20.90;61.30;;;;;;5008256;28;20026;-72
2022/04/10 07:55:43;;;;;;;13.02;3.35;;;20.90;60.90;;;;;;5008496;28;20539;-73
2022/04/10 07:58:10;;;;;;;11.85;3.25;;;21.00;60.90;;;;;;5004032;28;20022;-72
2022/04/10 08:00:37;;;;;;;7.57;2.22;;;21.10;60.70;;;;;;5008985;28;20022;-73
2022/04/10 08:03:03;;;;;;;11.13;2.95;;;21.10;60.50;;;;;;5008015;28;20026;-73
2022/04/10 08:05:30;;;;;;;11.23;3.33;;;21.10;60.20;;;;;;5010758;28;20061;-72
2022/04/10 08:07:56;;;;;;;17.20;2.95;;;21.10;59.90;;;;;;5009985;28;20440;-72
2022/04/10 08:10:24;;;;;;;4.80;2.70;;;21.20;59.60;;;;;;5008292;28;20006;-73
2022/04/10 08:12:51;;;;;;;10.13;3.25;;;21.20;59.10;;;;;;5011548;28;20084;-73
2022/04/10 08:15:18;;;;;;;7.15;2.38;;;21.20;58.80;;;;;;5004326;28;20010;-72
2022/04/10 08:17:44;;;;;;;6.82;2.22;;;21.30;58.70;;;;;;5007330;28;20026;-73
2022/04/10 08:20:12;;;;;;;9.25;2.78;;;21.30;58.70;;;;;;5007152;28;20136;-73
2022/04/10 08:22:39;;;;;;;5.35;2.25;;;21.40;58.60;;;;;;5008711;28;20022;-73
2022/04/10 08:25:10;;;;;;;4.50;3.05;;;21.40;58.60;;;;;;5007400;28;20470;-72
2022/04/10 08:27:37;;;;;;;3.83;2.45;;;21.50;58.70;;;;;;5008188;28;20076;-72
2022/04/10 08:30:05;;;;;;;5.18;2.78;;;21.60;58.70;;;;;;5011241;28;20462;-74
2022/04/10 08:32:38;;;;;;;4.30;2.63;;;21.60;58.50;;;;;;5008211;28;20045;-74
2022/04/10 08:35:06;;;;;;;5.93;3.17;;;21.70;58.30;;;;;;5010044;28;20053;-73
2022/04/10 08:37:33;;;;;;;4.72;3.33;;;21.70;58.20;;;;;;5005664;28;20064;-72
2022/04/10 08:39:59;;;;;;;6.07;2.65;;;21.80;57.90;;;;;;5009897;28;20579;-73
2022/04/10 08:42:26;;;;;;;5.88;3.05;;;21.90;57.50;;;;;;5009344;28;20014;-74
2022/04/10 08:44:56;;;;;;;5.65;2.55;;;21.90;57.10;;;;;;5007770;28;20067;-73
2022/04/10 08:47:22;;;;;;;4.90;2.17;;;22.00;57.20;;;;;;5006963;28;20010;-73
2022/04/10 08:49:50;;;;;;;4.43;2.35;;;22.00;57.30;;;;;;5009084;28;20026;-73
2022/04/10 08:52:19;;;;;;;5.10;3.17;;;22.10;56.90;;;;;;5006771;28;20118;-73
2022/04/10 08:54:46;;;;;;;6.57;3.03;;;22.20;56.20;;;;;;5007413;28;20413;-74
2022/04/10 08:57:13;;;;;;;4.75;3.03;;;22.20;56.10;;;;;;5008918;28;20049;-72
2022/04/10 08:59:40;;;;;;;9.80;4.32;;;22.30;55.50;;;;;;5007811;28;20028;-74
2022/04/10 09:02:07;;;;;;;4.03;2.90;;;22.30;55.60;;;;;;5007891;28;20014;-72
2022/04/10 09:04:34;;;;;;;7.05;2.92;;;22.40;55.60;;;;;;5006552;28;20029;-73
2022/04/10 09:07:08;;;;;;;8.23;3.58;;;22.40;55.30;;;;;;5007176;28;20049;-75
2022/04/10 09:09:37;;;;;;;4.95;3.08;;;22.50;55.30;;;;;;5007266;28;20104;-75
2022/04/10 09:12:05;;;;;;;4.18;2.10;;;22.60;55.20;;;;;;5007828;28;20026;-73
2022/04/10 09:14:38;;;;;;;6.28;2.97;;;22.70;54.90;;;;;;5008079;28;20505;-74
2022/04/10 09:17:15;;;;;;;5.47;2.20;;;22.80;54.60;;;;;;5007559;28;20101;-75
2022/04/10 09:19:47;;;;;;;3.97;2.75;;;22.80;54.40;;;;;;5005472;28;20056;-74
2022/04/10 09:22:35;;;;;;;6.50;3.15;;;22.90;54.30;;;;;;5007742;28;20018;-75
2022/04/10 09:25:02;;;;;;;5.65;2.67;;;23.00;54.70;;;;;;5007537;28;20381;-73
2022/04/10 09:27:36;;;;;;;6.85;2.78;;;23.10;54.80;;;;;;5003998;28;20022;-72
2022/04/10 09:30:05;;;;;;;5.13;2.15;;;23.10;54.40;;;;;;5002664;28;20084;-74
2022/04/10 09:33:12;;;;;;;7.70;2.80;;;23.20;54.30;;;;;;5004877;28;20050;-73
2022/04/10 09:36:10;;;;;;;6.30;2.53;;;23.20;54.20;;;;;;5006344;28;20029;-73
2022/04/10 09:38:36;;;;;;;5.85;2.88;;;23.30;54.20;;;;;;5005663;28;20026;-72
2022/04/10 09:41:15;;;;;;;4.82;2.60;;;23.40;53.60;;;;;;5008441;28;20365;-73
2022/04/10 09:43:43;;;;;;;7.60;3.38;;;23.40;53.40;;;;;;5004673;28;20034;-73
2022/04/10 09:46:15;;;;;;;7.20;3.13;;;23.50;53.10;;;;;;5004292;28;20018;-74
2022/04/10 09:48:41;;;;;;;6.85;3.38;;;23.60;52.90;;;;;;5007897;28;20026;-75
2022/04/10 09:51:11;;;;;;;7.43;4.18;;;23.60;52.70;;;;;;5007264;28;20032;-76
2022/04/10 09:53:38;;;;;;;10.20;3.63;;;23.70;52.90;;;;;;5007461;28;20032;-72
2022/04/10 09:56:07;;;;;;;7.20;4.00;;;23.70;52.80;;;;;;5007954;28;20038;-72
2022/04/10 09:58:35;;;;;;;6.15;3.60;;;23.80;52.40;;;;;;5007036;28;20018;-75
2022/04/10 10:01:04;;;;;;;7.95;3.08;;;23.90;51.90;;;;;;5007580;28;20358;-75
2022/04/10 10:03:36;;;;;;;15.35;3.35;;;24.00;51.10;;;;;;5002446;28;20018;-72
2022/04/10 10:06:05;;;;;;;6.00;4.00;;;24.00;51.00;;;;;;5005591;28;20112;-75
2022/04/10 10:08:32;;;;;;;7.13;3.50;;;24.10;50.70;;;;;;5004247;28;20026;-75
2022/04/10 10:11:01;;;;;;;6.97;3.65;;;24.20;50.30;;;;;;5005904;28;20389;-73
2022/04/10 10:13:28;;;;;;;5.90;3.58;;;24.20;50.30;;;;;;5004948;28;20123;-74
2022/04/10 10:15:55;;;;;;;6.85;3.78;;;24.30;50.30;;;;;;5004089;28;20548;-72
2022/04/10 10:18:24;;;;;;;6.72;3.80;;;24.40;50.40;;;;;;5005269;28;20373;-75
2022/04/10 10:20:51;;;;;;;11.35;3.78;;;24.40;50.10;;;;;;5007396;28;20025;-73
2022/04/10 10:23:20;;;;;;;10.10;2.95;;;24.50;49.60;;;;;;5006674;28;20505;-75
2022/04/10 10:26:08;;;;;;;7.18;3.53;;;24.60;49.30;;;;;;5006355;28;20014;-75
2022/04/10 10:28:34;;;;;;;10.63;5.10;;;24.70;48.90;;;;;;5004004;28;20121;-74
2022/04/10 10:31:11;;;;;;;8.43;4.28;;;24.80;48.50;;;;;;5006008;28;20052;-73
2022/04/10 10:33:47;;;;;;;9.60;4.38;;;24.90;48.40;;;;;;5000331;28;20050;-75
2022/04/10 10:36:22;;;;;;;12.20;4.32;;;24.90;48.00;;;;;;5003727;28;20512;-78
2022/04/10 10:38:53;;;;;;;23.08;5.35;;;25.00;47.80;;;;;;5006756;28;20040;-72
2022/04/10 10:41:19;;;;;;;24.15;8.25;;;25.10;48.30;;;;;;5009586;28;20409;-77
2022/04/10 10:43:49;;;;;;;27.58;7.05;;;25.00;48.70;;;;;;5014811;28;20058;-70
2022/04/10 10:46:28;;;;;;;11.10;4.80;;;25.10;48.50;;;;;;5010630;28;20006;-72
2022/04/10 10:49:20;;;;;;;9.70;4.20;;;25.10;48.30;;;;;;5009504;28;20052;-71
2022/04/10 10:51:52;;;;;;;11.02;4.57;;;25.10;48.10;;;;;;5006264;28;20028;-73
2022/04/10 10:54:26;;;;;;;7.40;4.20;;;25.10;48.10;;;;;;5003593;28;20045;-71
2022/04/10 10:56:53;;;;;;;14.32;4.57;;;25.20;47.50;;;;;;5009653;28;20037;-72
2022/04/10 10:59:27;;;;;;;25.02;4.82;;;25.20;47.40;;;;;;5007189;28;20044;-74
2022/04/10 11:02:19;;;;;;;9.43;4.70;;;25.20;47.40;;;;;;5008474;28;20117;-72
2022/04/10 11:04:51;;;;;;;8.23;4.25;;;25.30;47.70;;;;;;5006763;28;20315;-73
2022/04/10 11:07:22;;;;;;;13.35;4.32;;;25.30;47.40;;;;;;5008294;28;20055;-72
2022/04/10 11:09:52;;;;;;;9.27;3.40;;;25.30;47.00;;;;;;5007804;28;20075;-71
2022/04/10 11:12:23;;;;;;;7.18;2.75;;;25.40;46.90;;;;;;5004384;28;20038;-73
2022/04/10 11:14:56;;;;;;;7.70;3.20;;;25.50;46.90;;;;;;5008883;28;20026;-70
2022/04/10 11:17:32;;;;;;;7.13;2.70;;;25.50;46.30;;;;;;5006154;28;20087;-75
2022/04/10 11:20:05;;;;;;;7.03;2.80;;;25.50;46.40;;;;;;5024183;28;20105;-73
2022/04/10 11:22:47;;;;;;;7.90;2.92;;;25.60;46.50;;;;;;5021516;28;20033;-76
2022/04/10 11:25:16;;;;;;;5.53;2.55;;;25.70;46.10;;;;;;5006346;28;20018;-72
2022/04/10 11:27:43;;;;;;;4.32;2.67;;;25.70;45.70;;;;;;5006122;28;20084;-75
2022/04/10 11:30:12;;;;;;;7.05;3.75;;;25.80;45.70;;;;;;5003826;28;20037;-75
2022/04/10 11:32:49;;;;;;;4.07;2.65;;;25.90;44.90;;;;;;5008334;28;20586;-72
2022/04/10 11:35:24;;;;;;;7.70;3.10;;;25.90;44.60;;;;;;5005982;28;20038;-70
2022/04/10 11:37:53;;;;;;;5.38;2.80;;;26.00;44.30;;;;;;5007083;28;20508;-76
2022/04/10 11:40:25;;;;;;;4.03;2.60;;;26.10;44.00;;;;;;5005797;28;20022;-72
2022/04/10 11:42:54;;;;;;;8.68;7.20;;;26.10;43.40;;;;;;5007876;28;20068;-73
2022/04/10 11:45:22;;;;;;;14.75;6.60;;;26.10;43.50;;;;;;5007313;28;20018;-76
2022/04/10 11:47:49;;;;;;;6.63;4.20;;;26.20;43.50;;;;;;5007571;28;20010;-73
2022/04/10 11:50:17;;;;;;;5.30;3.45;;;26.20;43.30;;;;;;5004204;28;20022;-74
2022/04/10 11:52:56;;;;;;;5.55;3.25;;;26.30;43.50;;;;;;5011088;28;20105;-72
2022/04/10 11:55:29;;;;;;;7.90;3.58;;;26.30;43.50;;;;;;5007537;28;22086;-78
2022/04/10 11:57:57;;;;;;;7.03;3.90;;;26.40;43.80;;;;;;5007855;28;20438;-74
2022/04/10 12:00:23;;;;;;;20.20;3.75;;;26.40;43.60;;;;;;5005473;28;20030;-74
2022/04/10 12:02:54;;;;;;;9.27;2.75;;;26.40;43.60;;;;;;5008956;28;20034;-73
2022/04/10 12:05:21;;;;;;;4.18;2.75;;;26.50;43.00;;;;;;5005424;28;20036;-72
2022/04/10 12:07:57;;;;;;;5.95;2.47;;;26.50;42.90;;;;;;5007850;28;20022;-72
2022/04/10 12:10:24;;;;;;;4.75;2.00;;;26.60;42.70;;;;;;5006701;28;20033;-73
2022/04/10 12:12:51;;;;;;;5.63;2.38;;;26.60;42.20;;;;;;5007791;28;20983;-72
2022/04/10 12:15:19;;;;;;;2.60;1.67;;;26.70;41.90;;;;;;5004722;28;20038;-73
2022/04/10 12:17:47;;;;;;;2.45;1.98;;;26.70;41.70;;;;;;5003945;28;20474;-73
2022/04/10 12:20:14;;;;;;;3.60;2.20;;;26.70;41.40;;;;;;5006810;28;20133;-72
2022/04/10 12:22:42;;;;;;;8.48;2.50;;;26.80;41.30;;;;;;5008513;28;20105;-73
2022/04/10 12:25:11;;;;;;;3.22;1.67;;;26.90;41.00;;;;;;5007391;28;20629;-74
2022/04/10 12:27:38;;;;;;;3.90;1.88;;;26.90;40.30;;;;;;5006245;28;20029;-73
2022/04/10 12:30:09;;;;;;;16.05;2.42;;;27.00;40.10;;;;;;5003220;28;20108;-73
2022/04/10 12:32:36;;;;;;;5.90;1.70;;;27.00;40.10;;;;;;5008621;28;20036;-76
2022/04/10 12:35:08;;;;;;;17.65;11.80;;;27.00;39.70;;;;;;5004174;28;20038;-73
2022/04/10 12:37:36;;;;;;;8.52;5.55;;;27.00;39.20;;;;;;5004846;28;20398;-69
2022/04/10 12:40:05;;;;;;;3.95;3.50;;;27.10;39.30;;;;;;5003980;28;20041;-73
2022/04/10 12:42:42;;;;;;;7.25;3.15;;;27.20;38.80;;;;;;5003360;28;20061;-73
2022/04/10 12:45:10;;;;;;;4.72;3.88;;;27.20;38.90;;;;;;5007664;28;20079;-72
2022/04/10 12:47:47;;;;;;;6.45;4.40;;;27.30;39.30;;;;;;5005231;28;20467;-78
2022/04/10 12:50:17;;;;;;;15.15;6.85;;;27.20;39.40;;;;;;5006377;28;20049;-79
2022/04/10 12:52:45;;;;;;;8.07;6.95;;;27.20;39.40;;;;;;5005793;28;20048;-75
2022/04/10 12:55:23;;;;;;;8.98;7.28;;;27.20;39.00;;;;;;5003080;28;20064;-72
2022/04/10 12:58:08;;;;;;;12.18;9.43;;;27.20;39.00;;;;;;4998992;28;20080;-78